Eemslift Nelli — PCUT — position and weather

sailwx.info

Track history (hours):
 
Tides and Currents Weather Stations Pressure Air Temp Water Temp Dewpoint Dewpoint Depression Visibility Wind Speed Wind Dir Waves Ship Positions

Eemslift Nelli

Last reported at 2018-Feb-17 16:06 UTC. Time now 2018-Feb-19 18:04 UTC.
Position N 38°16' W 009°59'.

Length 111 m; draft 6.2 m.

Type: Cargo ship. MMSI: 244790607.

Date/timePositionNaut miles runAvg speedWind from/ knotsBaromVisibWave heightAir tempDewpointWater temp
2018-Feb-17 16:06N 38°16' W 009°59'214.6
2018-Feb-17 15:58N 38°18' W 009°59'715.0
2018-Feb-17 15:30N 38°25' W 010°01'815.5
2018-Feb-17 15:00N 38°32' W 010°04'815.3
2018-Feb-17 14:30N 38°40' W 010°06'815.0
2018-Feb-17 14:00N 38°47' W 010°07'714.3
2018-Feb-17 13:31N 38°54' W 010°06'714.3
2018-Feb-17 13:00N 39°01' W 010°06'714.4
2018-Feb-17 12:30N 39°09' W 010°06'714.6
2018-Feb-17 12:00N 39°16' W 010°05'  
2018-Feb-15 05:53N 49°43' W 003°36'4 9.8
2018-Feb-15 05:29N 49°45' W 003°31'510.0
2018-Feb-15 05:00N 49°47' W 003°24'510.8
2018-Feb-15 04:30N 49°50' W 003°17'511.0
2018-Feb-15 04:00N 49°53' W 003°10'612.1
2018-Feb-15 03:30N 49°56' W 003°02'613.0
2018-Feb-15 03:00N 49°58' W 002°53'713.9
2018-Feb-15 02:30N 50°00' W 002°42'714.6
2018-Feb-15 02:00N 50°02' W 002°31'7812.0
2018-Feb-14 19:29N 50°25' W 000°35'4 8.6
2018-Feb-14 19:00N 50°27' W 000°28'4 9.0
2018-Feb-14 18:30N 50°28' W 000°22'5 9.3
2018-Feb-14 18:00N 50°29' W 000°15'510.3
2018-Feb-14 17:30N 50°31' W 000°07'611.2
2018-Feb-14 17:00N 50°32' E 000°02'611.6
2018-Feb-14 16:30N 50°33' E 000°11'611.8
2018-Feb-14 16:00N 50°35' E 000°19'612.2
2018-Feb-14 15:30N 50°37' E 000°29'612.0
2018-Feb-14 15:00N 50°39' E 000°37'611.7
2018-Feb-14 14:30N 50°43' E 000°45'611.9
2018-Feb-14 14:00N 50°46' E 000°53'611.3
2018-Feb-14 13:30N 50°49' E 001°01'611.3
2018-Feb-14 13:00N 50°52' E 001°08'611.5
2018-Feb-14 12:30N 50°55' E 001°16'510.4
2018-Feb-14 12:00N 50°58' E 001°22'510.1
2018-Feb-14 11:30N 51°02' E 001°27'510.0
2018-Feb-14 11:00N 51°06' E 001°33'510.5
2018-Feb-14 10:30N 51°10' E 001°38'611.5
2018-Feb-14 10:00N 51°14' E 001°45'612.6
2018-Feb-14 09:30N 51°19' E 001°51'713.4
2018-Feb-14 09:01N 51°24' E 001°57'714.0
2018-Feb-14 08:30N 51°30' E 002°04'714.1
2018-Feb-14 08:00N 51°35' E 002°11'714.0
2018-Feb-14 07:30N 51°40' E 002°19'714.6
2018-Feb-14 07:00N 51°46' E 002°26'9112.6
2018-Feb-13 23:48N 52°57' E 003°59'413.2
2018-Feb-13 23:29N 52°60' E 004°04'713.3
2018-Feb-13 22:59N 53°05' E 004°12'613.6
2018-Feb-13 22:30N 53°09' E 004°20'713.5
2018-Feb-13 21:58N 53°15' E 004°26'12813.1
2018-Feb-13 12:14N 54°02' E 007°47'414.2
2018-Feb-13 11:57N 54°01' E 007°54'614.2
2018-Feb-13 11:29N 54°01' E 008°05'613.0
2018-Feb-13 11:00N 54°00' E 008°16'713.8
2018-Feb-13 10:31N 53°59' E 008°27'713.0
2018-Feb-13 10:00N 53°57' E 008°38'612.0
2018-Feb-13 09:30N 53°52' E 008°44'510.4
2018-Feb-13 09:01N 53°50' E 008°52'611.8
2018-Feb-13 08:30N 53°52' E 009°02'5 9.3
2018-Feb-13 08:01N 53°54' E 009°09'0 0.7
2018-Feb-13 07:30N 53°54' E 009°09'3 5.9
2018-Feb-13 07:01N 53°56' E 009°13'4 8.7
2018-Feb-13 06:30N 53°59' E 009°17'3 5.7
2018-Feb-13 06:00N 54°02' E 009°18'3 6.2
2018-Feb-13 05:30N 54°05' E 009°19'4 7.9
2018-Feb-13 04:59N 54°09' E 009°22'4 8.7
2018-Feb-13 04:31N 54°11' E 009°28'4 8.8
2018-Feb-13 04:01N 54°13' E 009°35'4 7.5
2018-Feb-13 03:31N 54°16' E 009°38'4 7.8
2018-Feb-13 03:01N 54°19' E 009°43'1 1.6
2018-Feb-13 02:31N 54°20' E 009°43'2 3.2
2018-Feb-13 02:01N 54°21' E 009°45'3 6.4
2018-Feb-13 01:31N 54°22' E 009°50'19 6.3
2018-Feb-12 22:32N 54°30' E 010°19'411.7
2018-Feb-12 22:12N 54°32' E 010°25'313.4
2018-Feb-12 22:00N 54°33' E 010°30'613.2
2018-Feb-12 21:31N 54°35' E 010°40'713.1
2018-Feb-12 21:01N 54°35' E 010°52'713.1
2018-Feb-12 20:31N 54°36' E 011°03'612.8
2018-Feb-12 20:01N 54°35' E 011°14'713.3
2018-Feb-12 19:31N 54°32' E 011°24'612.8
2018-Feb-12 19:01N 54°30' E 011°34'612.8
2018-Feb-12 18:31N 54°27' E 011°44'912.6
2018-Feb-12 17:46N 54°26' E 012°00'312.9
2018-Feb-12 17:30N 54°27' E 012°06'611.7
2018-Feb-12 17:00N 54°31' E 012°12'2812.9
2018-Feb-12 14:49N 54°55' E 012°38'511.9
2018-Feb-12 14:27N 54°59' E 012°39'612.7
2018-Feb-12 14:00N 55°05' E 012°38'612.5
2018-Feb-12 13:31N 55°11' E 012°38'612.5
2018-Feb-12 13:01N 55°17' E 012°37'612.8
2018-Feb-12 12:30N 55°24' E 012°39'612.6
2018-Feb-12 12:01N 55°30' E 012°42'510.4
2018-Feb-12 11:30N 55°35' E 012°42'611.2
2018-Feb-12 11:01N 55°41' E 012°41'3 6.0
2018-Feb-12 10:30N 55°43' E 012°38'1 2.3
2018-Feb-12 09:59N 55°43' E 012°37'0 0.0
2018-Feb-12 09:29N 55°43' E 012°37'0 0.0
2018-Feb-12 08:59N 55°43' E 012°37'0 0.0
2018-Feb-12 08:29N 55°43' E 012°37'0 0.0
2018-Feb-12 07:59N 55°43' E 012°37'0 0.0
2018-Feb-12 07:28N 55°43' E 012°37'0 0.0
2018-Feb-12 06:58N 55°43' E 012°37'0 0.0
2018-Feb-12 06:28N 55°43' E 012°37'0 0.0
2018-Feb-12 05:58N 55°43' E 012°37'0 0.0
2018-Feb-12 05:28N 55°43' E 012°37'0 0.0
2018-Feb-12 04:59N 55°43' E 012°37'0 0.0
2018-Feb-12 04:29N 55°43' E 012°37'0 0.0
2018-Feb-12 03:58N 55°43' E 012°37'0 0.0
2018-Feb-12 03:29N 55°43' E 012°37'0 0.0
2018-Feb-12 02:58N 55°43' E 012°37'0 0.0
2018-Feb-12 02:28N 55°43' E 012°37'0 0.0
2018-Feb-12 01:58N 55°43' E 012°37'0 0.0
2018-Feb-12 01:28N 55°43' E 012°37'0 0.0
2018-Feb-12 00:58N 55°43' E 012°37'0 0.0
2018-Feb-12 00:28N 55°43' E 012°37'0 0.0
2018-Feb-11 23:58N 55°43' E 012°37'0 0.0
2018-Feb-11 23:28N 55°43' E 012°37'0 0.0
2018-Feb-11 22:58N 55°43' E 012°37'0 0.0
2018-Feb-11 22:28N 55°43' E 012°37'0 0.0
2018-Feb-11 21:59N 55°43' E 012°37'0 0.0
2018-Feb-11 21:28N 55°43' E 012°37'0 0.0
2018-Feb-11 20:58N 55°43' E 012°37'0 0.0
2018-Feb-11 20:28N 55°43' E 012°37'0 0.0
2018-Feb-11 19:58N 55°43' E 012°37'0 0.0
2018-Feb-11 19:28N 55°43' E 012°37'0 0.0
2018-Feb-11 18:58N 55°43' E 012°37'0 0.0
2018-Feb-11 18:28N 55°43' E 012°37'0 0.0
2018-Feb-11 17:58N 55°43' E 012°37'0 0.0
2018-Feb-11 17:28N 55°43' E 012°37'0 0.0
2018-Feb-11 16:58N 55°43' E 012°37'0 0.0
2018-Feb-11 16:28N 55°43' E 012°37'0 0.0
2018-Feb-11 15:58N 55°43' E 012°37'0 0.0
2018-Feb-11 15:28N 55°43' E 012°37'0 0.0
2018-Feb-11 14:58N 55°43' E 012°37'0 0.0
2018-Feb-11 14:28N 55°43' E 012°37'0 0.0
2018-Feb-11 13:58N 55°43' E 012°37'0 0.0
2018-Feb-11 13:28N 55°43' E 012°37'0 0.0
2018-Feb-11 12:58N 55°43' E 012°37'0 0.0
2018-Feb-11 12:28N 55°43' E 012°37'0 0.0
2018-Feb-11 11:58N 55°43' E 012°37'0 0.0
2018-Feb-11 11:28N 55°43' E 012°37'0 0.0
2018-Feb-11 10:58N 55°43' E 012°37'0 0.0
2018-Feb-11 10:28N 55°43' E 012°37'0 0.0
2018-Feb-11 09:58N 55°43' E 012°37'0 0.0
2018-Feb-11 09:28N 55°43' E 012°37'0 0.0
2018-Feb-11 08:58N 55°43' E 012°37'0 0.0
2018-Feb-11 08:28N 55°43' E 012°37'0 0.0
2018-Feb-11 07:58N 55°43' E 012°37'0 0.0
2018-Feb-11 07:28N 55°43' E 012°37'0 0.0
2018-Feb-11 06:58N 55°43' E 012°37'0 0.0
2018-Feb-11 06:28N 55°43' E 012°37'0 0.0
2018-Feb-11 05:58N 55°43' E 012°37'0 0.0
2018-Feb-11 05:28N 55°43' E 012°37'0 0.0
2018-Feb-11 04:58N 55°43' E 012°37'0 0.0
2018-Feb-11 04:28N 55°43' E 012°37'0 0.0
2018-Feb-11 03:58N 55°43' E 012°37'0 0.0
2018-Feb-11 03:28N 55°43' E 012°37'0 0.0
2018-Feb-11 02:58N 55°43' E 012°37'0 0.0
2018-Feb-11 02:28N 55°43' E 012°37'0 0.0
2018-Feb-11 01:58N 55°43' E 012°37'0 0.0
2018-Feb-11 01:28N 55°43' E 012°37'0 0.0
2018-Feb-11 00:58N 55°43' E 012°37'0 0.0
2018-Feb-11 00:28N 55°43' E 012°37'0 0.0
2018-Feb-10 23:58N 55°43' E 012°37'0 0.0
2018-Feb-10 23:28N 55°43' E 012°37'0 0.0
2018-Feb-10 22:58N 55°43' E 012°37'0 0.0
2018-Feb-10 22:28N 55°43' E 012°37'0 0.0
2018-Feb-10 21:58N 55°43' E 012°37'0 0.0
2018-Feb-10 21:28N 55°43' E 012°37'0 0.0
2018-Feb-10 20:58N 55°43' E 012°37'0 0.0
2018-Feb-10 20:28N 55°43' E 012°37'0 0.0
2018-Feb-10 19:58N 55°43' E 012°37'0 0.0
2018-Feb-10 19:28N 55°43' E 012°37'0 0.0
2018-Feb-10 18:58N 55°43' E 012°37'0 0.0
2018-Feb-10 18:28N 55°43' E 012°37'0 0.0
2018-Feb-10 17:58N 55°43' E 012°37'0 0.0
2018-Feb-10 17:28N 55°43' E 012°37'0 0.0
2018-Feb-10 16:58N 55°43' E 012°37'0 0.0
2018-Feb-10 16:28N 55°43' E 012°37'0 0.0
2018-Feb-10 15:58N 55°43' E 012°37'0 0.0
2018-Feb-10 15:28N 55°43' E 012°37'0 0.0
2018-Feb-10 14:58N 55°43' E 012°37'0 0.0
2018-Feb-10 14:28N 55°43' E 012°37'0 0.0
2018-Feb-10 13:58N 55°43' E 012°37'0 0.0
2018-Feb-10 13:28N 55°43' E 012°37'0 0.0
2018-Feb-10 12:58N 55°43' E 012°37'0 0.0
2018-Feb-10 12:28N 55°43' E 012°37'0 0.0
2018-Feb-10 11:58N 55°43' E 012°37'0 0.0
2018-Feb-10 11:28N 55°43' E 012°37'0 0.0
2018-Feb-10 10:58N 55°43' E 012°37'0 0.0
2018-Feb-10 10:28N 55°43' E 012°37'0 0.0
2018-Feb-10 09:58N 55°43' E 012°37'0 0.0
2018-Feb-10 09:28N 55°43' E 012°37'0 0.0
2018-Feb-10 08:58N 55°43' E 012°37'0 0.0
2018-Feb-10 08:28N 55°43' E 012°37'0 0.0
2018-Feb-10 07:58N 55°43' E 012°37'0 0.0
2018-Feb-10 07:28N 55°43' E 012°37'0 0.0
2018-Feb-10 06:58N 55°43' E 012°37'0 0.0
2018-Feb-10 06:28N 55°43' E 012°37'0 0.0
2018-Feb-10 05:58N 55°43' E 012°37'0 0.0
2018-Feb-10 05:28N 55°43' E 012°37'0 0.0
2018-Feb-10 04:58N 55°43' E 012°37'0 0.0
2018-Feb-10 04:28N 55°43' E 012°37'0 0.0
2018-Feb-10 03:58N 55°43' E 012°37'0 0.0
2018-Feb-10 03:28N 55°43' E 012°37'0 0.0
2018-Feb-10 02:58N 55°43' E 012°37'0 0.0
2018-Feb-10 02:28N 55°43' E 012°37'0 0.0
2018-Feb-10 01:58N 55°43' E 012°37'0 0.0
2018-Feb-10 01:28N 55°43' E 012°37'0 0.0
2018-Feb-10 00:58N 55°43' E 012°37'0 0.0
2018-Feb-10 00:28N 55°43' E 012°37'0 0.0
2018-Feb-09 23:58N 55°43' E 012°37'0 0.0
2018-Feb-09 23:28N 55°43' E 012°37'0 0.0
2018-Feb-09 22:58N 55°43' E 012°37'0 0.0
2018-Feb-09 22:43N 55°43' E 012°37'0 0.0
2018-Feb-08 01:29N 55°43' E 012°37'0 0.0
2018-Feb-08 00:59N 55°43' E 012°37'0 0.0
2018-Feb-08 00:29N 55°43' E 012°37'0 0.0
2018-Feb-07 23:59N 55°43' E 012°37'0 0.0
2018-Feb-07 23:29N 55°43' E 012°37'0 0.0
2018-Feb-07 22:59N 55°43' E 012°37'0 0.0
2018-Feb-07 22:29N 55°43' E 012°37'0 0.0
2018-Feb-07 21:59N 55°43' E 012°37'0 0.0
2018-Feb-07 21:29N 55°43' E 012°37'  
Track history (hours):
 
Tides and Currents Weather Stations Pressure Air Temp Water Temp Dewpoint Dewpoint Depression Visibility Wind Speed Wind Dir Waves Ship Positions

Eemslift Nelli

Last reported at 2018-Feb-17 16:06 UTC. Time now 2018-Feb-19 18:04 UTC.
Position N 38°16' W 009°59'.

Length 111 m; draft 6.2 m.

Type: Cargo ship. MMSI: 244790607.

Date/timePositionNaut miles runAvg speedWind from/ knotsBaromVisibWave heightAir tempDewpointWater temp
2018-Feb-17 16:06N 38°16' W 009°59'214.6
2018-Feb-17 15:58N 38°18' W 009°59'715.0
2018-Feb-17 15:30N 38°25' W 010°01'815.5
2018-Feb-17 15:00N 38°32' W 010°04'815.3
2018-Feb-17 14:30N 38°40' W 010°06'815.0
2018-Feb-17 14:00N 38°47' W 010°07'714.3
2018-Feb-17 13:31N 38°54' W 010°06'714.3
2018-Feb-17 13:00N 39°01' W 010°06'714.4
2018-Feb-17 12:30N 39°09' W 010°06'714.6
2018-Feb-17 12:00N 39°16' W 010°05'  
2018-Feb-15 05:53N 49°43' W 003°36'4 9.8
2018-Feb-15 05:29N 49°45' W 003°31'510.0
2018-Feb-15 05:00N 49°47' W 003°24'510.8
2018-Feb-15 04:30N 49°50' W 003°17'511.0
2018-Feb-15 04:00N 49°53' W 003°10'612.1
2018-Feb-15 03:30N 49°56' W 003°02'613.0
2018-Feb-15 03:00N 49°58' W 002°53'713.9
2018-Feb-15 02:30N 50°00' W 002°42'714.6
2018-Feb-15 02:00N 50°02' W 002°31'7812.0
2018-Feb-14 19:29N 50°25' W 000°35'4 8.6
2018-Feb-14 19:00N 50°27' W 000°28'4 9.0
2018-Feb-14 18:30N 50°28' W 000°22'5 9.3
2018-Feb-14 18:00N 50°29' W 000°15'510.3
2018-Feb-14 17:30N 50°31' W 000°07'611.2
2018-Feb-14 17:00N 50°32' E 000°02'611.6
2018-Feb-14 16:30N 50°33' E 000°11'611.8
2018-Feb-14 16:00N 50°35' E 000°19'612.2
2018-Feb-14 15:30N 50°37' E 000°29'612.0
2018-Feb-14 15:00N 50°39' E 000°37'611.7
2018-Feb-14 14:30N 50°43' E 000°45'611.9
2018-Feb-14 14:00N 50°46' E 000°53'611.3
2018-Feb-14 13:30N 50°49' E 001°01'611.3
2018-Feb-14 13:00N 50°52' E 001°08'611.5
2018-Feb-14 12:30N 50°55' E 001°16'510.4
2018-Feb-14 12:00N 50°58' E 001°22'510.1
2018-Feb-14 11:30N 51°02' E 001°27'510.0
2018-Feb-14 11:00N 51°06' E 001°33'510.5
2018-Feb-14 10:30N 51°10' E 001°38'611.5
2018-Feb-14 10:00N 51°14' E 001°45'612.6
2018-Feb-14 09:30N 51°19' E 001°51'713.4
2018-Feb-14 09:01N 51°24' E 001°57'714.0
2018-Feb-14 08:30N 51°30' E 002°04'714.1
2018-Feb-14 08:00N 51°35' E 002°11'714.0
2018-Feb-14 07:30N 51°40' E 002°19'714.6
2018-Feb-14 07:00N 51°46' E 002°26'9112.6
2018-Feb-13 23:48N 52°57' E 003°59'413.2
2018-Feb-13 23:29N 52°60' E 004°04'713.3
2018-Feb-13 22:59N 53°05' E 004°12'613.6
2018-Feb-13 22:30N 53°09' E 004°20'713.5
2018-Feb-13 21:58N 53°15' E 004°26'12813.1
2018-Feb-13 12:14N 54°02' E 007°47'414.2
2018-Feb-13 11:57N 54°01' E 007°54'614.2
2018-Feb-13 11:29N 54°01' E 008°05'613.0
2018-Feb-13 11:00N 54°00' E 008°16'713.8
2018-Feb-13 10:31N 53°59' E 008°27'713.0
2018-Feb-13 10:00N 53°57' E 008°38'612.0
2018-Feb-13 09:30N 53°52' E 008°44'510.4
2018-Feb-13 09:01N 53°50' E 008°52'611.8
2018-Feb-13 08:30N 53°52' E 009°02'5 9.3
2018-Feb-13 08:01N 53°54' E 009°09'0 0.7
2018-Feb-13 07:30N 53°54' E 009°09'3 5.9
2018-Feb-13 07:01N 53°56' E 009°13'4 8.7
2018-Feb-13 06:30N 53°59' E 009°17'3 5.7
2018-Feb-13 06:00N 54°02' E 009°18'3 6.2
2018-Feb-13 05:30N 54°05' E 009°19'4 7.9
2018-Feb-13 04:59N 54°09' E 009°22'4 8.7
2018-Feb-13 04:31N 54°11' E 009°28'4 8.8
2018-Feb-13 04:01N 54°13' E 009°35'4 7.5
2018-Feb-13 03:31N 54°16' E 009°38'4 7.8
2018-Feb-13 03:01N 54°19' E 009°43'1 1.6
2018-Feb-13 02:31N 54°20' E 009°43'2 3.2
2018-Feb-13 02:01N 54°21' E 009°45'3 6.4
2018-Feb-13 01:31N 54°22' E 009°50'19 6.3
2018-Feb-12 22:32N 54°30' E 010°19'411.7
2018-Feb-12 22:12N 54°32' E 010°25'313.4
2018-Feb-12 22:00N 54°33' E 010°30'613.2
2018-Feb-12 21:31N 54°35' E 010°40'713.1
2018-Feb-12 21:01N 54°35' E 010°52'713.1
2018-Feb-12 20:31N 54°36' E 011°03'612.8
2018-Feb-12 20:01N 54°35' E 011°14'713.3
2018-Feb-12 19:31N 54°32' E 011°24'612.8
2018-Feb-12 19:01N 54°30' E 011°34'612.8
2018-Feb-12 18:31N 54°27' E 011°44'912.6
2018-Feb-12 17:46N 54°26' E 012°00'312.9
2018-Feb-12 17:30N 54°27' E 012°06'611.7
2018-Feb-12 17:00N 54°31' E 012°12'2812.9
2018-Feb-12 14:49N 54°55' E 012°38'511.9
2018-Feb-12 14:27N 54°59' E 012°39'612.7
2018-Feb-12 14:00N 55°05' E 012°38'612.5
2018-Feb-12 13:31N 55°11' E 012°38'612.5
2018-Feb-12 13:01N 55°17' E 012°37'612.8
2018-Feb-12 12:30N 55°24' E 012°39'612.6
2018-Feb-12 12:01N 55°30' E 012°42'510.4
2018-Feb-12 11:30N 55°35' E 012°42'611.2
2018-Feb-12 11:01N 55°41' E 012°41'3 6.0
2018-Feb-12 10:30N 55°43' E 012°38'1 2.3
2018-Feb-12 09:59N 55°43' E 012°37'0 0.0
2018-Feb-12 09:29N 55°43' E 012°37'0 0.0
2018-Feb-12 08:59N 55°43' E 012°37'0 0.0
2018-Feb-12 08:29N 55°43' E 012°37'0 0.0
2018-Feb-12 07:59N 55°43' E 012°37'0 0.0
2018-Feb-12 07:28N 55°43' E 012°37'0 0.0
2018-Feb-12 06:58N 55°43' E 012°37'0 0.0
2018-Feb-12 06:28N 55°43' E 012°37'0 0.0
2018-Feb-12 05:58N 55°43' E 012°37'0 0.0
2018-Feb-12 05:28N 55°43' E 012°37'0 0.0
2018-Feb-12 04:59N 55°43' E 012°37'0 0.0
2018-Feb-12 04:29N 55°43' E 012°37'0 0.0
2018-Feb-12 03:58N 55°43' E 012°37'0 0.0
2018-Feb-12 03:29N 55°43' E 012°37'0 0.0
2018-Feb-12 02:58N 55°43' E 012°37'0 0.0
2018-Feb-12 02:28N 55°43' E 012°37'0 0.0
2018-Feb-12 01:58N 55°43' E 012°37'0 0.0
2018-Feb-12 01:28N 55°43' E 012°37'0 0.0
2018-Feb-12 00:58N 55°43' E 012°37'0 0.0
2018-Feb-12 00:28N 55°43' E 012°37'0 0.0
2018-Feb-11 23:58N 55°43' E 012°37'0 0.0
2018-Feb-11 23:28N 55°43' E 012°37'0 0.0
2018-Feb-11 22:58N 55°43' E 012°37'0 0.0
2018-Feb-11 22:28N 55°43' E 012°37'0 0.0
2018-Feb-11 21:59N 55°43' E 012°37'0 0.0
2018-Feb-11 21:28N 55°43' E 012°37'0 0.0
2018-Feb-11 20:58N 55°43' E 012°37'0 0.0
2018-Feb-11 20:28N 55°43' E 012°37'0 0.0
2018-Feb-11 19:58N 55°43' E 012°37'0 0.0
2018-Feb-11 19:28N 55°43' E 012°37'0 0.0
2018-Feb-11 18:58N 55°43' E 012°37'0 0.0
2018-Feb-11 18:28N 55°43' E 012°37'0 0.0
2018-Feb-11 17:58N 55°43' E 012°37'0 0.0
2018-Feb-11 17:28N 55°43' E 012°37'0 0.0
2018-Feb-11 16:58N 55°43' E 012°37'0 0.0
2018-Feb-11 16:28N 55°43' E 012°37'0 0.0
2018-Feb-11 15:58N 55°43' E 012°37'0 0.0
2018-Feb-11 15:28N 55°43' E 012°37'0 0.0
2018-Feb-11 14:58N 55°43' E 012°37'0 0.0
2018-Feb-11 14:28N 55°43' E 012°37'0 0.0
2018-Feb-11 13:58N 55°43' E 012°37'0 0.0
2018-Feb-11 13:28N 55°43' E 012°37'0 0.0
2018-Feb-11 12:58N 55°43' E 012°37'0 0.0
2018-Feb-11 12:28N 55°43' E 012°37'0 0.0
2018-Feb-11 11:58N 55°43' E 012°37'0 0.0
2018-Feb-11 11:28N 55°43' E 012°37'0 0.0
2018-Feb-11 10:58N 55°43' E 012°37'0 0.0
2018-Feb-11 10:28N 55°43' E 012°37'0 0.0
2018-Feb-11 09:58N 55°43' E 012°37'0 0.0
2018-Feb-11 09:28N 55°43' E 012°37'0 0.0
2018-Feb-11 08:58N 55°43' E 012°37'0 0.0
2018-Feb-11 08:28N 55°43' E 012°37'0 0.0
2018-Feb-11 07:58N 55°43' E 012°37'0 0.0
2018-Feb-11 07:28N 55°43' E 012°37'0 0.0
2018-Feb-11 06:58N 55°43' E 012°37'0 0.0
2018-Feb-11 06:28N 55°43' E 012°37'0 0.0
2018-Feb-11 05:58N 55°43' E 012°37'0 0.0
2018-Feb-11 05:28N 55°43' E 012°37'0 0.0
2018-Feb-11 04:58N 55°43' E 012°37'0 0.0
2018-Feb-11 04:28N 55°43' E 012°37'0 0.0
2018-Feb-11 03:58N 55°43' E 012°37'0 0.0
2018-Feb-11 03:28N 55°43' E 012°37'0 0.0
2018-Feb-11 02:58N 55°43' E 012°37'0 0.0
2018-Feb-11 02:28N 55°43' E 012°37'0 0.0
2018-Feb-11 01:58N 55°43' E 012°37'0 0.0
2018-Feb-11 01:28N 55°43' E 012°37'0 0.0
2018-Feb-11 00:58N 55°43' E 012°37'0 0.0
2018-Feb-11 00:28N 55°43' E 012°37'0 0.0
2018-Feb-10 23:58N 55°43' E 012°37'0 0.0
2018-Feb-10 23:28N 55°43' E 012°37'0 0.0
2018-Feb-10 22:58N 55°43' E 012°37'0 0.0
2018-Feb-10 22:28N 55°43' E 012°37'0 0.0
2018-Feb-10 21:58N 55°43' E 012°37'0 0.0
2018-Feb-10 21:28N 55°43' E 012°37'0 0.0
2018-Feb-10 20:58N 55°43' E 012°37'0 0.0
2018-Feb-10 20:28N 55°43' E 012°37'0 0.0
2018-Feb-10 19:58N 55°43' E 012°37'0 0.0
2018-Feb-10 19:28N 55°43' E 012°37'0 0.0
2018-Feb-10 18:58N 55°43' E 012°37'0 0.0
2018-Feb-10 18:28N 55°43' E 012°37'0 0.0
2018-Feb-10 17:58N 55°43' E 012°37'0 0.0
2018-Feb-10 17:28N 55°43' E 012°37'0 0.0
2018-Feb-10 16:58N 55°43' E 012°37'0 0.0
2018-Feb-10 16:28N 55°43' E 012°37'0 0.0
2018-Feb-10 15:58N 55°43' E 012°37'0 0.0
2018-Feb-10 15:28N 55°43' E 012°37'0 0.0
2018-Feb-10 14:58N 55°43' E 012°37'0 0.0
2018-Feb-10 14:28N 55°43' E 012°37'0 0.0
2018-Feb-10 13:58N 55°43' E 012°37'0 0.0
2018-Feb-10 13:28N 55°43' E 012°37'0 0.0
2018-Feb-10 12:58N 55°43' E 012°37'0 0.0
2018-Feb-10 12:28N 55°43' E 012°37'0 0.0
2018-Feb-10 11:58N 55°43' E 012°37'0 0.0
2018-Feb-10 11:28N 55°43' E 012°37'0 0.0
2018-Feb-10 10:58N 55°43' E 012°37'0 0.0
2018-Feb-10 10:28N 55°43' E 012°37'0 0.0
2018-Feb-10 09:58N 55°43' E 012°37'0 0.0
2018-Feb-10 09:28N 55°43' E 012°37'0 0.0
2018-Feb-10 08:58N 55°43' E 012°37'0 0.0
2018-Feb-10 08:28N 55°43' E 012°37'0 0.0
2018-Feb-10 07:58N 55°43' E 012°37'0 0.0
2018-Feb-10 07:28N 55°43' E 012°37'0 0.0
2018-Feb-10 06:58N 55°43' E 012°37'0 0.0
2018-Feb-10 06:28N 55°43' E 012°37'0 0.0
2018-Feb-10 05:58N 55°43' E 012°37'0 0.0
2018-Feb-10 05:28N 55°43' E 012°37'0 0.0
2018-Feb-10 04:58N 55°43' E 012°37'0 0.0
2018-Feb-10 04:28N 55°43' E 012°37'0 0.0
2018-Feb-10 03:58N 55°43' E 012°37'0 0.0
2018-Feb-10 03:28N 55°43' E 012°37'0 0.0
2018-Feb-10 02:58N 55°43' E 012°37'0 0.0
2018-Feb-10 02:28N 55°43' E 012°37'0 0.0
2018-Feb-10 01:58N 55°43' E 012°37'0 0.0
2018-Feb-10 01:28N 55°43' E 012°37'0 0.0
2018-Feb-10 00:58N 55°43' E 012°37'0 0.0
2018-Feb-10 00:28N 55°43' E 012°37'0 0.0
2018-Feb-09 23:58N 55°43' E 012°37'0 0.0
2018-Feb-09 23:28N 55°43' E 012°37'0 0.0
2018-Feb-09 22:58N 55°43' E 012°37'0 0.0
2018-Feb-09 22:43N 55°43' E 012°37'0 0.0
2018-Feb-08 01:29N 55°43' E 012°37'0 0.0
2018-Feb-08 00:59N 55°43' E 012°37'0 0.0
2018-Feb-08 00:29N 55°43' E 012°37'0 0.0
2018-Feb-07 23:59N 55°43' E 012°37'0 0.0
2018-Feb-07 23:29N 55°43' E 012°37'0 0.0
2018-Feb-07 22:59N 55°43' E 012°37'0 0.0
2018-Feb-07 22:29N 55°43' E 012°37'0 0.0
2018-Feb-07 21:59N 55°43' E 012°37'0 0.0
2018-Feb-07 21:29N 55°43' E 012°37'  

Dump ship's entire track history